Time;durP1;ratioP1;P1;durP2;ratioP2;P2;SDS_P1;SDS_P2;PMS_P1;PMS_P2;Temp;Humidity;BMP_temperature;BMP_pressure;BME280_temperature;BME280_humidity;BME280_pressure;Samples;Min_cycle;Max_cycle;Signal;HPM_P1;HPM_P2
2022/08/04 00:01:03;;;;;;;0.30;0.30;;;24.20;99.90;;;;;;5067293;28;20657;-81
2022/08/04 00:03:39;;;;;;;1.70;0.40;;;24.30;99.90;;;;;;5077431;28;20211;-81
2022/08/04 00:06:16;;;;;;;0.53;0.53;;;24.40;99.90;;;;;;5073360;28;20184;-81
2022/08/04 00:08:51;;;;;;;0.30;0.30;;;24.40;99.90;;;;;;5067746;28;20202;-81
2022/08/04 00:11:23;;;;;;;0.53;0.40;;;24.30;99.90;;;;;;5069802;28;20281;-81
2022/08/04 00:13:56;;;;;;;1.27;0.67;;;24.20;99.90;;;;;;5089650;28;20177;-81
2022/08/04 00:16:23;;;;;;;0.60;0.60;;;24.10;99.90;;;;;;5077542;28;20181;-81
2022/08/04 00:19:00;;;;;;;0.40;0.40;;;24.00;99.90;;;;;;5076927;28;20726;-81
2022/08/04 00:21:28;;;;;;;0.50;0.50;;;23.90;99.90;;;;;;5072717;28;20220;-81
2022/08/04 00:23:55;;;;;;;0.30;0.30;;;23.90;99.90;;;;;;5072938;28;20561;-81
2022/08/04 00:26:21;;;;;;;0.60;0.60;;;23.90;99.90;;;;;;5075590;28;20823;-81
2022/08/04 00:28:47;;;;;;;0.50;0.50;;;23.80;99.90;;;;;;5070255;28;20205;-81
2022/08/04 00:31:15;;;;;;;0.43;0.37;;;23.70;99.90;;;;;;5087258;28;20264;-81
2022/08/04 00:33:44;;;;;;;0.30;0.30;;;23.60;99.90;;;;;;5069701;28;20258;-81
2022/08/04 00:36:11;;;;;;;0.30;0.30;;;23.50;99.90;;;;;;5075527;28;20280;-81
2022/08/04 00:38:43;;;;;;;0.50;0.40;;;23.40;99.90;;;;;;5074620;28;20181;-80
2022/08/04 00:41:24;;;;;;;0.57;0.57;;;23.40;99.90;;;;;;5094056;28;20556;-80
2022/08/04 00:44:19;;;;;;;1.77;0.50;;;23.50;99.90;;;;;;5071754;28;20631;-81
2022/08/04 00:47:07;;;;;;;0.40;0.40;;;23.60;99.90;;;;;;5064757;28;20253;-81
2022/08/04 00:49:48;;;;;;;0.93;0.60;;;23.50;99.90;;;;;;5071682;28;20660;-81
2022/08/04 00:52:35;;;;;;;0.30;0.30;;;23.50;99.90;;;;;;5068257;28;20355;-81
2022/08/04 00:55:18;;;;;;;0.60;0.50;;;23.70;99.90;;;;;;5070721;28;20178;-80
2022/08/04 00:58:17;;;;;;;0.30;0.30;;;23.70;99.90;;;;;;5071022;28;20193;-80
2022/08/04 01:01:05;;;;;;;0.40;0.40;;;23.70;99.90;;;;;;5073855;28;20217;-81
2022/08/04 01:03:57;;;;;;;0.40;0.40;;;23.70;99.90;;;;;;5067808;28;20212;-81
2022/08/04 01:06:34;;;;;;;0.50;0.50;;;23.70;99.90;;;;;;5071710;28;20191;-81
2022/08/04 01:09:35;;;;;;;0.40;0.30;;;23.70;99.90;;;;;;5068888;28;20675;-81
2022/08/04 01:12:28;;;;;;;0.30;0.30;;;23.80;99.90;;;;;;5059273;28;20596;-81
2022/08/04 01:15:06;;;;;;;0.50;0.50;;;23.80;99.90;;;;;;5072304;28;20192;-81
2022/08/04 01:17:35;;;;;;;0.67;0.57;;;23.90;99.90;;;;;;5072645;28;20188;-81
2022/08/04 01:20:09;;;;;;;0.40;0.40;;;23.90;99.90;;;;;;5063822;28;20196;-81
2022/08/04 01:22:56;;;;;;;0.40;0.40;;;23.70;99.90;;;;;;5071496;28;20661;-81
2022/08/04 01:26:03;;;;;;;0.43;0.43;;;23.80;99.90;;;;;;5072073;28;20192;-80
2022/08/04 01:29:03;;;;;;;0.40;0.40;;;23.60;99.90;;;;;;5069559;28;20269;-81
2022/08/04 01:31:47;;;;;;;0.70;0.70;;;23.50;99.90;;;;;;5065494;28;20192;-81
2022/08/04 01:34:16;;;;;;;3.77;0.60;;;23.50;99.90;;;;;;5074328;28;20177;-81
2022/08/04 01:36:46;;;;;;;0.30;0.30;;;23.30;99.90;;;;;;5070751;28;20226;-81
2022/08/04 01:42:01;;;;;;;0.97;0.97;;;23.40;99.90;;;;;;5069798;28;20693;-81
2022/08/04 01:44:28;;;;;;;0.20;0.20;;;23.50;99.90;;;;;;5072285;28;20657;-80
2022/08/04 01:46:54;;;;;;;0.33;0.33;;;23.50;99.90;;;;;;5067120;28;20678;-81
2022/08/04 01:49:22;;;;;;;0.40;0.40;;;23.50;99.90;;;;;;5070486;28;20251;-81
2022/08/04 01:51:53;;;;;;;0.53;0.53;;;23.60;99.90;;;;;;5064413;28;20205;-81
2022/08/04 01:54:19;;;;;;;0.40;0.40;;;23.70;99.90;;;;;;5066637;28;20185;-81
2022/08/04 01:56:48;;;;;;;0.43;0.43;;;23.80;99.90;;;;;;5070230;28;20216;-80
2022/08/04 01:59:18;;;;;;;0.50;0.43;;;23.80;99.90;;;;;;5070491;28;20192;-81
2022/08/04 02:01:44;;;;;;;0.60;0.60;;;23.70;99.90;;;;;;5071796;28;20666;-81
2022/08/04 02:04:14;;;;;;;0.57;0.57;;;23.70;99.90;;;;;;5071622;28;20213;-81
2022/08/04 02:07:10;;;;;;;0.60;0.50;;;23.70;99.90;;;;;;5069319;28;20792;-81
2022/08/04 02:10:03;;;;;;;0.30;0.30;;;23.70;99.90;;;;;;5068890;28;20558;-81
2022/08/04 02:12:51;;;;;;;0.27;0.27;;;23.70;99.90;;;;;;5071435;28;20284;-80
2022/08/04 02:15:27;;;;;;;0.77;0.70;;;23.80;99.90;;;;;;5069623;28;20271;-80
2022/08/04 02:17:58;;;;;;;0.60;0.60;;;23.70;99.90;;;;;;5069953;28;20186;-81
2022/08/04 02:20:36;;;;;;;0.40;0.40;;;23.70;99.90;;;;;;5075097;28;20189;-81
2022/08/04 02:23:13;;;;;;;0.73;0.73;;;23.70;99.90;;;;;;5069002;28;20258;-80
2022/08/04 02:25:47;;;;;;;3.80;0.60;;;23.70;99.90;;;;;;5083292;28;20669;-80
2022/08/04 02:28:21;;;;;;;0.60;0.60;;;23.70;99.90;;;;;;5073220;28;20246;-80
2022/08/04 02:31:17;;;;;;;0.77;0.43;;;23.70;99.90;;;;;;5066472;28;20222;-81
2022/08/04 02:33:45;;;;;;;0.47;0.47;;;23.70;99.90;;;;;;5064452;28;20228;-80
2022/08/04 02:36:27;;;;;;;0.60;0.60;;;23.70;99.90;;;;;;5072417;28;20188;-81
2022/08/04 02:38:56;;;;;;;0.60;0.60;;;23.70;99.90;;;;;;5067387;28;20185;-81
2022/08/04 02:41:24;;;;;;;0.33;0.33;;;23.70;99.90;;;;;;5067387;28;20720;-81
2022/08/04 02:43:54;;;;;;;0.40;0.37;;;23.70;99.90;;;;;;5072468;28;20204;-80
2022/08/04 02:46:20;;;;;;;0.60;0.60;;;23.70;99.90;;;;;;5069255;28;20192;-81
2022/08/04 02:48:48;;;;;;;0.40;0.40;;;23.70;99.90;;;;;;5065125;28;20240;-80
2022/08/04 02:51:15;;;;;;;0.30;0.30;;;23.70;99.90;;;;;;5069826;28;20277;-81
2022/08/04 02:53:43;;;;;;;0.70;0.70;;;23.80;99.90;;;;;;5069473;28;20538;-81
2022/08/04 02:56:10;;;;;;;0.70;0.57;;;23.70;99.90;;;;;;5075740;28;20181;-80
2022/08/04 02:58:37;;;;;;;0.57;0.57;;;23.70;99.90;;;;;;5088386;28;20191;-80
2022/08/04 03:01:03;;;;;;;0.60;0.60;;;23.70;99.90;;;;;;5072262;28;20192;-80
2022/08/04 03:03:47;;;;;;;1.57;1.27;;;23.70;99.90;;;;;;5070050;28;20212;-81
2022/08/04 03:06:31;;;;;;;0.40;0.40;;;23.40;99.90;;;;;;5069810;28;20196;-80
2022/08/04 03:09:24;;;;;;;0.97;0.60;;;23.10;99.90;;;;;;5072356;28;20713;-81
2022/08/04 03:12:07;;;;;;;0.30;0.30;;;22.90;99.90;;;;;;5069381;28;20201;-80
2022/08/04 03:14:38;;;;;;;0.40;0.40;;;22.90;99.90;;;;;;5077780;28;20655;-80
2022/08/04 03:17:03;;;;;;;0.20;0.20;;;23.00;99.90;;;;;;5071865;28;20184;-79
2022/08/04 03:20:07;;;;;;;0.50;0.50;;;23.00;99.90;;;;;;5076126;28;20184;-79
2022/08/04 03:23:05;;;;;;;0.33;0.33;;;23.10;99.90;;;;;;5018518;28;20579;-79
2022/08/04 03:25:52;;;;;;;0.40;0.40;;;22.90;99.90;;;;;;5067896;28;20184;-79
2022/08/04 03:28:53;;;;;;;1.33;0.67;;;22.90;99.90;;;;;;5067317;28;20584;-79
2022/08/04 03:31:44;;;;;;;0.47;0.27;;;23.00;99.90;;;;;;5065370;28;20226;-79
2022/08/04 03:34:22;;;;;;;0.60;0.60;;;23.00;99.90;;;;;;5066303;28;20173;-80
2022/08/04 03:37:22;;;;;;;0.70;0.70;;;23.00;99.90;;;;;;5068737;28;20645;-79
2022/08/04 03:40:15;;;;;;;0.33;0.33;;;23.10;99.90;;;;;;5068369;28;20227;-79
2022/08/04 03:43:16;;;;;;;1.03;0.60;;;23.10;99.90;;;;;;5068330;28;20204;-80
2022/08/04 03:46:17;;;;;;;0.40;0.40;;;23.10;99.90;;;;;;5063890;28;20193;-79
2022/08/04 03:48:56;;;;;;;0.87;0.63;;;23.10;99.90;;;;;;5066523;28;20556;-80
2022/08/04 03:55:02;;;;;;;0.53;0.53;;;23.20;99.90;;;;;;5067106;28;20187;-79
2022/08/04 03:58:12;;;;;;;0.40;0.40;;;23.10;99.90;;;;;;5063149;28;20272;-79
2022/08/04 04:00:58;;;;;;;0.57;0.57;;;23.10;99.90;;;;;;5057160;28;20216;-79
2022/08/04 04:03:42;;;;;;;0.23;0.23;;;23.10;99.90;;;;;;5064506;28;20201;-80
2022/08/04 04:06:37;;;;;;;0.40;0.40;;;23.10;99.90;;;;;;5065265;28;21019;-79
2022/08/04 04:09:34;;;;;;;0.50;0.50;;;23.10;99.90;;;;;;5065526;28;20207;-79
2022/08/04 04:12:18;;;;;;;0.57;0.57;;;23.20;99.90;;;;;;5064967;28;20708;-79
2022/08/04 04:15:18;;;;;;;1.20;0.80;;;23.40;99.90;;;;;;5067697;28;20211;-80
2022/08/04 04:18:14;;;;;;;0.47;0.43;;;23.60;99.90;;;;;;5066425;28;20592;-80
2022/08/04 04:20:52;;;;;;;0.50;0.50;;;23.60;99.90;;;;;;5083632;28;20188;-80
2022/08/04 04:23:41;;;;;;;0.57;0.57;;;23.60;99.90;;;;;;5065701;28;20205;-80
2022/08/04 04:26:36;;;;;;;0.60;0.60;;;23.60;99.90;;;;;;5065751;28;20182;-80
2022/08/04 04:29:19;;;;;;;0.67;0.63;;;23.50;99.90;;;;;;5066059;28;20236;-79
2022/08/04 04:31:56;;;;;;;0.40;0.40;;;23.60;99.90;;;;;;5067600;28;20202;-80
2022/08/04 04:35:09;;;;;;;0.50;0.50;;;23.60;99.90;;;;;;5070707;28;20173;-80
2022/08/04 04:37:55;;;;;;;0.40;0.40;;;23.70;99.90;;;;;;5053999;28;20193;-80
2022/08/04 04:40:41;;;;;;;0.60;0.60;;;23.80;99.90;;;;;;5068780;28;20188;-80
2022/08/04 04:43:12;;;;;;;0.40;0.40;;;23.90;99.90;;;;;;5070389;28;20208;-80
2022/08/04 04:45:52;;;;;;;0.33;0.33;;;23.90;99.90;;;;;;5068372;28;20185;-80
2022/08/04 04:48:28;;;;;;;0.93;0.50;;;23.90;99.90;;;;;;5069632;28;20196;-79
2022/08/04 04:51:15;;;;;;;0.63;0.63;;;24.00;99.90;;;;;;5072981;28;20645;-79
2022/08/04 04:54:05;;;;;;;0.57;0.57;;;24.00;99.90;;;;;;5072385;28;20278;-79
2022/08/04 04:56:45;;;;;;;0.70;0.70;;;24.00;99.90;;;;;;5069621;28;20568;-80
2022/08/04 04:59:15;;;;;;;0.27;0.27;;;24.00;99.90;;;;;;5075753;28;20200;-80
2022/08/04 05:02:09;;;;;;;0.53;0.53;;;23.90;99.90;;;;;;5072293;28;20593;-80
2022/08/04 05:05:02;;;;;;;0.60;0.60;;;24.10;99.90;;;;;;5067720;28;20223;-80
2022/08/04 05:07:44;;;;;;;0.40;0.40;;;24.20;99.90;;;;;;5065557;28;20200;-80
2022/08/04 05:10:18;;;;;;;0.80;0.80;;;24.10;99.90;;;;;;5070684;28;20185;-80
2022/08/04 05:13:01;;;;;;;0.77;0.53;;;24.30;99.90;;;;;;5073632;28;20206;-81
2022/08/04 05:15:34;;;;;;;0.43;0.43;;;24.40;99.90;;;;;;5066374;28;20184;-81
2022/08/04 05:18:02;;;;;;;1.47;0.70;;;24.40;99.90;;;;;;5068293;28;20533;-81
2022/08/04 05:20:39;;;;;;;0.50;0.50;;;24.50;99.90;;;;;;5075273;28;20238;-80
2022/08/04 05:23:10;;;;;;;0.87;0.87;;;24.60;99.90;;;;;;5072834;28;20208;-80
2022/08/04 05:25:50;;;;;;;0.80;0.80;;;24.60;99.90;;;;;;5084145;28;20192;-80
2022/08/04 05:28:19;;;;;;;1.07;0.93;;;24.60;99.90;;;;;;5073438;28;20208;-80
2022/08/04 05:30:55;;;;;;;0.50;0.50;;;24.60;99.90;;;;;;5068774;28;20182;-80
2022/08/04 05:33:46;;;;;;;0.37;0.37;;;24.70;99.90;;;;;;5067065;28;20264;-80
2022/08/04 05:36:18;;;;;;;1.07;0.60;;;24.90;99.90;;;;;;5091615;28;20185;-80
2022/08/04 05:38:48;;;;;;;0.40;0.40;;;24.90;99.90;;;;;;5078810;28;20208;-80
2022/08/04 05:41:14;;;;;;;0.50;0.50;;;25.00;99.90;;;;;;5075895;28;20254;-80
2022/08/04 05:43:42;;;;;;;0.80;0.80;;;25.10;99.90;;;;;;5076541;28;20209;-80
2022/08/04 05:46:09;;;;;;;0.50;0.50;;;25.20;99.90;;;;;;5075892;28;20244;-80
2022/08/04 05:48:36;;;;;;;0.70;0.47;;;25.20;99.90;;;;;;5073654;28;20208;-81
2022/08/04 05:51:03;;;;;;;1.33;0.73;;;25.20;99.90;;;;;;5082450;28;20188;-80
2022/08/04 05:53:30;;;;;;;0.50;0.50;;;25.20;99.90;;;;;;5087152;28;20212;-81
2022/08/04 05:55:56;;;;;;;0.73;0.63;;;25.30;99.90;;;;;;5078956;28;20183;-81
2022/08/04 05:58:22;;;;;;;0.47;0.40;;;25.40;99.90;;;;;;5069805;28;20217;-81
2022/08/04 06:00:50;;;;;;;1.33;1.00;;;25.40;99.90;;;;;;5064810;28;20185;-80
2022/08/04 06:03:17;;;;;;;0.73;0.60;;;25.40;99.90;;;;;;5090043;28;20201;-80
2022/08/04 06:05:44;;;;;;;0.60;0.60;;;25.50;99.90;;;;;;5073740;28;20217;-80
2022/08/04 06:08:10;;;;;;;0.43;0.43;;;25.60;99.90;;;;;;5074317;28;20277;-80
2022/08/04 06:10:38;;;;;;;0.80;0.80;;;25.70;99.90;;;;;;5064750;28;20181;-80
2022/08/04 06:13:10;;;;;;;0.80;0.80;;;25.80;99.90;;;;;;5078204;28;20208;-80
2022/08/04 06:15:39;;;;;;;0.97;0.50;;;26.00;99.90;;;;;;5074777;28;20181;-81
2022/08/04 06:18:08;;;;;;;1.03;0.50;;;26.00;99.90;;;;;;5070111;28;20685;-80
2022/08/04 06:20:37;;;;;;;0.40;0.40;;;26.10;99.90;;;;;;5074473;28;20181;-80
2022/08/04 06:23:07;;;;;;;0.67;0.67;;;26.20;99.90;;;;;;5076351;28;20275;-80
2022/08/04 06:25:55;;;;;;;0.53;0.53;;;26.20;99.90;;;;;;5075063;28;20191;-80
2022/08/04 06:28:22;;;;;;;0.60;0.60;;;26.20;99.90;;;;;;5071227;28;20220;-80
2022/08/04 06:30:49;;;;;;;0.47;0.33;;;26.30;99.90;;;;;;5070968;28;20193;-80
2022/08/04 06:33:36;;;;;;;0.57;0.50;;;26.30;99.90;;;;;;5076995;28;20193;-80
2022/08/04 06:36:04;;;;;;;0.30;0.30;;;26.30;99.90;;;;;;5072336;28;20181;-80
2022/08/04 06:38:34;;;;;;;0.50;0.50;;;26.40;99.90;;;;;;5091894;28;20192;-80
2022/08/04 06:41:02;;;;;;;0.30;0.30;;;26.40;99.90;;;;;;5076110;28;20196;-80
2022/08/04 06:43:30;;;;;;;1.27;0.90;;;26.50;99.90;;;;;;5076643;28;20239;-80
2022/08/04 06:45:58;;;;;;;2.07;1.93;;;26.50;99.90;;;;;;5073936;28;20185;-80
2022/08/04 06:48:24;;;;;;;0.60;0.60;;;26.60;99.90;;;;;;5074633;28;20216;-81
2022/08/04 06:50:52;;;;;;;0.60;0.60;;;26.70;99.90;;;;;;5073665;28;20782;-81
2022/08/04 06:53:17;;;;;;;0.53;0.53;;;26.90;99.90;;;;;;5074120;28;20197;-80
2022/08/04 06:55:47;;;;;;;0.80;0.80;;;27.00;99.90;;;;;;5073390;28;20280;-80
2022/08/04 06:58:15;;;;;;;0.30;0.30;;;27.20;99.90;;;;;;5074256;28;20564;-81
2022/08/04 07:00:42;;;;;;;1.07;0.57;;;27.50;99.90;;;;;;5076687;28;20196;-80
2022/08/04 07:03:09;;;;;;;0.60;0.60;;;27.60;99.90;;;;;;5080348;28;20762;-81
2022/08/04 07:05:35;;;;;;;0.53;0.53;;;27.80;99.90;;;;;;5071855;28;20185;-81
2022/08/04 07:08:01;;;;;;;0.65;0.63;;;28.10;99.90;;;;;;5067998;28;20231;-79
2022/08/04 07:10:27;;;;;;;0.82;0.82;;;28.20;99.90;;;;;;5073552;28;20189;-78
2022/08/04 07:12:54;;;;;;;0.57;0.57;;;28.50;99.90;;;;;;5080035;28;20691;-79
2022/08/04 07:15:21;;;;;;;0.57;0.55;;;28.80;99.90;;;;;;5065831;28;20257;-79
2022/08/04 07:17:49;;;;;;;1.15;0.90;;;29.00;99.90;;;;;;5063221;28;20201;-80
2022/08/04 07:20:15;;;;;;;1.15;0.88;;;29.20;99.90;;;;;;5070521;28;20195;-80
2022/08/04 07:22:42;;;;;;;0.70;0.70;;;29.20;99.90;;;;;;5059626;28;20213;-80
2022/08/04 07:25:09;;;;;;;0.40;0.40;;;29.30;99.90;;;;;;5068101;28;20189;-80
2022/08/04 07:27:35;;;;;;;1.23;0.80;;;29.40;99.90;;;;;;5069220;28;20211;-80
2022/08/04 07:30:04;;;;;;;0.60;0.60;;;29.60;99.90;;;;;;5072492;28;20176;-80
2022/08/04 07:32:30;;;;;;;0.93;0.70;;;29.60;99.90;;;;;;5071040;28;20196;-80
2022/08/04 07:34:57;;;;;;;0.63;0.63;;;29.60;99.90;;;;;;5066964;28;20192;-80
2022/08/04 07:37:23;;;;;;;0.55;0.55;;;29.60;99.90;;;;;;5059858;28;20614;-80
2022/08/04 07:39:48;;;;;;;0.60;0.60;;;29.80;99.90;;;;;;5072366;28;20189;-80
2022/08/04 07:42:18;;;;;;;0.75;0.75;;;29.90;99.90;;;;;;5074826;28;20824;-81
2022/08/04 07:44:45;;;;;;;0.90;0.80;;;30.00;99.90;;;;;;5055673;28;20550;-80
2022/08/04 07:47:11;;;;;;;0.55;0.55;;;30.20;99.90;;;;;;5068245;28;20197;-80
2022/08/04 07:49:37;;;;;;;0.60;0.60;;;30.30;99.90;;;;;;5066677;28;20194;-81
2022/08/04 07:52:05;;;;;;;0.80;0.50;;;29.70;99.90;;;;;;5074475;28;20201;-80
2022/08/04 07:54:32;;;;;;;0.95;0.93;;;30.00;99.90;;;;;;5067906;28;20185;-80
2022/08/04 07:56:57;;;;;;;0.88;0.80;;;30.50;99.90;;;;;;5069103;28;20186;-80
2022/08/04 07:59:24;;;;;;;3.53;1.00;;;30.80;99.90;;;;;;5070285;28;20200;-80
2022/08/04 08:01:50;;;;;;;1.38;0.75;;;31.00;99.90;;;;;;5070928;28;20201;-80
2022/08/04 08:04:16;;;;;;;2.00;1.25;;;31.10;99.90;;;;;;5072927;28;20181;-80
2022/08/04 08:06:42;;;;;;;0.85;0.63;;;31.00;99.90;;;;;;5067362;28;20185;-80
2022/08/04 08:09:09;;;;;;;1.67;1.58;;;31.10;99.90;;;;;;5069101;28;20254;-80
2022/08/04 08:11:35;;;;;;;0.70;0.70;;;30.90;99.90;;;;;;5070164;28;20181;-79
2022/08/04 08:14:01;;;;;;;1.38;1.25;;;31.00;99.90;;;;;;5065904;28;20209;-79
2022/08/04 08:16:27;;;;;;;4.03;1.58;;;31.30;99.90;;;;;;5068204;28;20181;-80
2022/08/04 08:18:54;;;;;;;0.82;0.82;;;31.30;99.90;;;;;;5069118;28;20212;-79
2022/08/04 08:21:20;;;;;;;0.73;0.73;;;31.50;99.90;;;;;;5074130;28;20185;-79
2022/08/04 08:23:47;;;;;;;0.40;0.40;;;31.30;99.90;;;;;;5073099;28;20204;-79
2022/08/04 08:26:12;;;;;;;2.53;1.40;;;31.20;99.90;;;;;;5067838;28;20185;-79
2022/08/04 08:28:38;;;;;;;1.00;0.90;;;30.70;99.90;;;;;;5066725;28;20619;-79
2022/08/04 08:31:04;;;;;;;0.40;0.40;;;31.10;99.90;;;;;;5073824;28;20200;-80
2022/08/04 08:33:29;;;;;;;1.55;0.60;;;31.20;99.90;;;;;;5073478;28;20216;-79
2022/08/04 08:36:03;;;;;;;1.20;0.60;;;31.30;99.90;;;;;;5070616;28;20294;-79
2022/08/04 08:39:02;;;;;;;2.10;1.60;;;31.50;99.90;;;;;;5073819;28;20242;-80
2022/08/04 08:41:53;;;;;;;0.73;0.73;;;31.60;99.90;;;;;;5074913;28;20933;-79
2022/08/04 08:44:22;;;;;;;0.70;0.70;;;31.80;99.90;;;;;;5071635;28;20188;-79
2022/08/04 08:47:09;;;;;;;2.15;1.90;;;32.10;99.90;;;;;;5070590;28;20200;-79
2022/08/04 08:49:54;;;;;;;0.80;0.75;;;32.40;99.90;;;;;;5077037;28;20189;-80
2022/08/04 08:52:35;;;;;;;0.63;0.63;;;32.60;99.90;;;;;;5065321;28;20193;-79
2022/08/04 08:55:44;;;;;;;0.75;0.65;;;32.70;99.90;;;;;;5073231;28;20715;-80
2022/08/04 08:58:38;;;;;;;0.82;0.82;;;32.50;99.90;;;;;;5051465;28;20241;-80
2022/08/04 09:01:30;;;;;;;1.23;0.80;;;32.90;99.90;;;;;;5072311;28;20264;-81
2022/08/04 09:04:10;;;;;;;0.98;0.88;;;32.90;99.90;;;;;;5075746;28;20303;-81
2022/08/04 09:07:02;;;;;;;0.85;0.50;;;32.90;99.90;;;;;;5072116;28;20185;-81
2022/08/04 09:10:05;;;;;;;1.13;0.90;;;33.00;99.90;;;;;;5076626;28;20218;-81
2022/08/04 09:12:43;;;;;;;3.42;2.88;;;33.20;99.90;;;;;;5074124;28;20201;-82
2022/08/04 09:15:28;;;;;;;0.52;0.52;;;33.40;99.90;;;;;;5074994;28;20231;-80
2022/08/04 09:17:59;;;;;;;0.75;0.75;;;33.50;99.90;;;;;;5069928;28;20501;-81
2022/08/04 09:20:43;;;;;;;0.47;0.32;;;33.70;99.90;;;;;;5074996;28;20185;-81
2022/08/04 09:23:34;;;;;;;0.80;0.70;;;33.80;99.90;;;;;;5073128;28;20197;-80
2022/08/04 09:26:07;;;;;;;0.55;0.55;;;33.90;99.90;;;;;;5074153;28;20267;-81
2022/08/04 09:28:56;;;;;;;5.35;1.35;;;33.90;99.90;;;;;;5091541;28;20209;-80
2022/08/04 09:31:36;;;;;;;1.00;1.00;;;33.90;99.90;;;;;;5071398;28;20176;-80
2022/08/04 09:34:10;;;;;;;1.33;0.77;;;33.90;99.90;;;;;;5076440;28;20251;-80
2022/08/04 09:36:50;;;;;;;1.00;0.73;;;34.00;99.90;;;;;;5076640;28;20208;-80
2022/08/04 09:39:28;;;;;;;2.33;1.52;;;34.00;99.90;;;;;;5081468;28;20177;-80
2022/08/04 09:42:06;;;;;;;0.82;0.82;;;34.00;99.90;;;;;;5073874;28;20289;-80
2022/08/04 09:44:44;;;;;;;0.93;0.85;;;34.10;99.90;;;;;;5072926;28;20244;-80
2022/08/04 09:47:31;;;;;;;0.50;0.50;;;34.10;99.90;;;;;;5071161;28;20272;-80
2022/08/04 09:50:22;;;;;;;0.70;0.70;;;34.30;99.90;;;;;;5079859;28;20201;-80
2022/08/04 09:53:09;;;;;;;1.88;0.68;;;34.50;99.90;;;;;;5074936;28;20270;-81
2022/08/04 09:55:47;;;;;;;0.63;0.63;;;34.50;99.90;;;;;;5068554;28;20174;-80
2022/08/04 09:58:15;;;;;;;0.70;0.70;;;34.60;99.90;;;;;;5073155;28;20176;-80
2022/08/04 10:01:06;;;;;;;0.98;0.85;;;34.60;99.90;;;;;;5091670;28;20192;-80
2022/08/04 10:03:37;;;;;;;1.65;1.50;;;34.60;99.90;;;;;;5064235;28;20224;-80
2022/08/04 10:06:30;;;;;;;0.50;0.50;;;34.70;99.90;;;;;;5072247;28;20701;-80
2022/08/04 10:09:18;;;;;;;0.90;0.90;;;34.80;99.90;;;;;;5069305;28;20205;-81
2022/08/04 10:11:56;;;;;;;4.82;1.33;;;34.80;99.90;;;;;;5075230;28;20228;-80
2022/08/04 10:14:37;;;;;;;1.77;0.77;;;34.60;99.90;;;;;;5091458;28;20534;-81
2022/08/04 10:17:11;;;;;;;2.70;2.50;;;34.50;99.90;;;;;;5068830;28;20182;-80
2022/08/04 10:19:40;;;;;;;2.90;1.30;;;34.80;99.90;;;;;;5069076;28;20185;-80
2022/08/04 10:22:20;;;;;;;1.00;0.65;;;35.00;99.90;;;;;;5077379;28;20197;-80
2022/08/04 10:25:01;;;;;;;1.50;1.00;;;35.30;99.90;;;;;;5068736;28;20236;-80
2022/08/04 10:27:35;;;;;;;0.88;0.88;;;35.50;99.90;;;;;;5091156;28;20259;-81
2022/08/04 10:30:13;;;;;;;0.82;0.75;;;35.50;99.90;;;;;;5072123;28;20300;-81
2022/08/04 10:32:54;;;;;;;1.35;0.80;;;35.60;99.90;;;;;;5070894;28;20670;-80
2022/08/04 10:35:25;;;;;;;0.88;0.88;;;35.90;99.90;;;;;;5069060;28;20189;-81
2022/08/04 10:38:14;;;;;;;0.93;0.80;;;35.30;99.90;;;;;;5076755;28;20185;-81
2022/08/04 10:40:45;;;;;;;1.30;0.70;;;35.70;99.90;;;;;;5077358;28;20184;-80
2022/08/04 10:43:36;;;;;;;0.57;0.57;;;35.90;99.90;;;;;;5064038;28;20213;-80
2022/08/04 10:46:25;;;;;;;0.70;0.68;;;36.10;99.90;;;;;;5074937;28;20180;-81
2022/08/04 10:49:03;;;;;;;0.70;0.70;;;36.20;99.90;;;;;;5071931;28;20231;-80
2022/08/04 10:51:50;;;;;;;0.85;0.85;;;36.40;99.90;;;;;;5093188;28;20177;-81
2022/08/04 10:54:50;;;;;;;0.82;0.82;;;36.50;99.90;;;;;;5076363;28;20177;-80
2022/08/04 10:57:27;;;;;;;1.60;1.50;;;36.20;99.90;;;;;;5071191;28;20280;-81
2022/08/04 11:00:26;;;;;;;1.48;1.38;;;36.30;99.90;;;;;;5067097;28;20176;-81
2022/08/04 11:03:07;;;;;;;1.35;1.23;;;36.30;99.90;;;;;;5073145;28;20306;-81
2022/08/04 11:06:05;;;;;;;1.13;1.00;;;36.30;99.90;;;;;;5072785;28;20169;-81
2022/08/04 11:08:37;;;;;;;1.55;0.80;;;36.70;99.90;;;;;;5032889;28;20220;-81
2022/08/04 11:11:12;;;;;;;0.70;0.70;;;36.90;99.90;;;;;;5068494;28;20181;-80
2022/08/04 11:13:44;;;;;;;0.63;0.63;;;37.10;99.90;;;;;;5069009;28;20215;-81
2022/08/04 11:16:18;;;;;;;0.57;0.57;;;37.00;99.90;;;;;;5071867;28;20189;-81
2022/08/04 11:19:18;;;;;;;0.60;0.60;;;37.00;99.90;;;;;;5069761;28;20657;-81
2022/08/04 11:22:10;;;;;;;0.77;0.63;;;37.10;99.90;;;;;;5070221;28;20181;-81
2022/08/04 11:25:01;;;;;;;0.82;0.82;;;37.20;99.90;;;;;;5074723;28;20664;-81
2022/08/04 11:27:36;;;;;;;0.90;0.90;;;37.30;99.90;;;;;;5071409;28;20206;-81
2022/08/04 11:30:07;;;;;;;0.75;0.75;;;36.90;99.90;;;;;;5084882;28;20181;-80
2022/08/04 11:33:04;;;;;;;3.65;2.15;;;37.00;99.90;;;;;;5091266;28;20195;-81
2022/08/04 11:35:41;;;;;;;0.50;0.50;;;37.30;99.90;;;;;;5066642;28;20223;-81
2022/08/04 11:38:16;;;;;;;0.50;0.50;;;37.50;99.90;;;;;;5074449;28;20181;-80
2022/08/04 11:40:43;;;;;;;0.68;0.68;;;37.50;99.90;;;;;;5073109;28;20189;-80
2022/08/04 11:43:18;;;;;;;1.00;0.68;;;37.60;99.90;;;;;;5062407;28;20201;-81
2022/08/04 11:45:51;;;;;;;0.45;0.45;;;37.60;99.90;;;;;;5069312;28;20192;-80
2022/08/04 11:48:24;;;;;;;0.60;0.60;;;37.70;99.90;;;;;;5068271;28;20301;-80
2022/08/04 11:50:52;;;;;;;0.70;0.70;;;37.60;99.80;;;;;;5085977;28;20173;-81
2022/08/04 11:53:22;;;;;;;0.55;0.55;;;37.50;99.90;;;;;;5072405;28;20650;-80
2022/08/04 11:55:51;;;;;;;0.70;0.70;;;37.50;99.90;;;;;;5085436;28;20178;-81
2022/08/04 11:58:19;;;;;;;0.95;0.75;;;37.60;99.90;;;;;;5070028;28;20668;-81
2022/08/04 12:01:08;;;;;;;0.60;0.60;;;37.70;99.90;;;;;;5067605;28;20185;-81
2022/08/04 12:04:02;;;;;;;0.45;0.45;;;37.90;99.60;;;;;;5086046;28;20218;-80
2022/08/04 12:06:47;;;;;;;0.77;0.77;;;38.00;98.80;;;;;;5076684;28;20269;-81
2022/08/04 12:09:35;;;;;;;0.40;0.40;;;38.10;98.30;;;;;;5075665;28;20232;-80
2022/08/04 12:12:26;;;;;;;0.65;0.50;;;38.10;96.60;;;;;;5068744;28;20209;-81
2022/08/04 12:15:23;;;;;;;0.50;0.50;;;38.20;96.60;;;;;;5075873;28;20177;-81
2022/08/04 12:17:58;;;;;;;0.60;0.47;;;38.20;96.60;;;;;;5067928;28;20201;-80
2022/08/04 12:20:27;;;;;;;0.55;0.55;;;38.30;96.60;;;;;;5072708;28;20658;-81
2022/08/04 12:22:57;;;;;;;0.55;0.55;;;38.30;96.70;;;;;;5070469;28;20296;-80
2022/08/04 12:25:29;;;;;;;0.70;0.70;;;38.40;97.10;;;;;;5066774;28;20192;-81
2022/08/04 12:27:59;;;;;;;0.70;0.70;;;38.50;96.80;;;;;;5066685;28;20214;-81
2022/08/04 12:30:33;;;;;;;0.30;0.30;;;38.70;97.30;;;;;;5064621;28;20177;-80
2022/08/04 12:33:05;;;;;;;0.57;0.50;;;38.70;95.50;;;;;;5087302;28;20284;-81
2022/08/04 12:35:55;;;;;;;0.63;0.63;;;38.70;95.40;;;;;;5070828;28;20192;-81
2022/08/04 12:38:25;;;;;;;0.65;0.65;;;38.50;95.70;;;;;;5073631;28;20700;-81
2022/08/04 12:40:54;;;;;;;0.50;0.50;;;38.70;95.80;;;;;;5072358;28;20196;-81
2022/08/04 12:43:40;;;;;;;0.50;0.50;;;38.80;96.10;;;;;;5070757;28;20208;-81
2022/08/04 12:46:09;;;;;;;0.40;0.40;;;38.90;95.40;;;;;;5084049;28;20176;-81
2022/08/04 12:48:37;;;;;;;0.38;0.38;;;38.90;95.50;;;;;;5068707;28;20220;-80
2022/08/04 12:51:08;;;;;;;0.32;0.32;;;38.90;95.30;;;;;;5071545;28;20177;-81
2022/08/04 12:53:40;;;;;;;0.70;0.70;;;38.80;96.20;;;;;;5091064;28;20201;-81
2022/08/04 12:56:07;;;;;;;0.43;0.43;;;38.80;95.50;;;;;;5064163;28;20237;-81
2022/08/04 12:58:37;;;;;;;0.40;0.40;;;38.90;95.60;;;;;;5075763;28;20270;-80
2022/08/04 13:01:06;;;;;;;0.60;0.60;;;38.90;96.20;;;;;;5066402;28;20182;-81
2022/08/04 13:03:53;;;;;;;0.75;0.70;;;39.10;95.90;;;;;;5069809;28;20208;-81
2022/08/04 13:06:26;;;;;;;0.50;0.50;;;39.20;95.70;;;;;;5085166;28;20566;-81
2022/08/04 13:08:53;;;;;;;0.52;0.50;;;39.10;95.50;;;;;;5071420;28;20824;-81
2022/08/04 13:11:20;;;;;;;0.55;0.55;;;39.20;95.30;;;;;;5073050;28;20185;-81
2022/08/04 13:13:48;;;;;;;0.60;0.60;;;39.30;95.30;;;;;;5073009;28;20244;-81
2022/08/04 13:16:14;;;;;;;0.63;0.63;;;39.10;94.80;;;;;;5072282;28;20259;-81
2022/08/04 13:18:48;;;;;;;0.80;0.77;;;39.00;95.20;;;;;;5067488;28;20209;-81
2022/08/04 13:21:19;;;;;;;0.80;0.80;;;38.80;94.40;;;;;;5073842;28;20192;-81
2022/08/04 13:23:45;;;;;;;0.68;0.55;;;38.90;94.80;;;;;;5074030;28;20241;-81
2022/08/04 13:26:15;;;;;;;0.40;0.40;;;39.00;95.00;;;;;;5066244;28;20211;-80
2022/08/04 13:28:44;;;;;;;0.40;0.40;;;39.00;95.20;;;;;;5070751;28;20209;-80
2022/08/04 13:31:14;;;;;;;0.73;0.50;;;39.10;95.30;;;;;;5070705;28;20642;-80
2022/08/04 13:33:43;;;;;;;0.57;0.57;;;39.10;94.60;;;;;;5085840;28;20216;-81
2022/08/04 13:36:10;;;;;;;1.25;0.40;;;39.00;94.80;;;;;;5061938;28;20192;-81
2022/08/04 13:38:44;;;;;;;0.40;0.40;;;39.00;94.50;;;;;;5063523;28;20193;-81
2022/08/04 13:41:10;;;;;;;0.40;0.40;;;38.80;94.80;;;;;;5070996;28;20193;-81
2022/08/04 13:43:45;;;;;;;0.50;0.43;;;38.70;94.30;;;;;;5069412;28;20266;-80